Paines Hollow, New York
Current Conditions -  °F | °C
As of 2:53 AM on Monday 22 Dec 2014 (Local Time) from KRME Reporting Station
Overcast Overcast  
Wind Chill: 29°   Ceiling: 2400
Heat Index: 29°   Visibility: 10mi
Dew Point: 23°   Wind: 3mph
Humidity: 78%   Direction: 90°E
Pressure: 30.35"   Gusts: NA
Location:  42.9627°N, 74.9432°W
Report Text: KRME 220753Z AUTO 09003KT 10SM OVC024 M02/M05 A3035 RMK AO2 SLP280 T10171050
Loading
Personal Weather Stations






























Interactive Weather Map New forecast layout! Learn more

10-Day Weather Forecast

Advertisements
Track Severe Weather on mobile